NORTHEAST SUFFOLK  -  Winter Weather Advisory Winter Weather Advisory     Winter Weather Advisory Winter Weather Advisory        NORTHERN NASSAU  -  Winter Weather Advisory Winter Weather Advisory        NORTHWEST SUFFOLK  -  Winter Weather Advisory Winter Weather Advisory     Winter Weather Advisory Winter Weather Advisory        SOUTHEAST SUFFOLK  -  Winter Weather Advisory Winter Weather Advisory     Winter Weather Advisory Winter Weather Advisory        SOUTHERN NASSAU  -  Winter Weather Advisory Winter Weather Advisory        SOUTHWEST SUFFOLK  -  Winter Weather Advisory Winter Weather Advisory     Winter Weather Advisory Winter Weather Advisory      

Active alerts

Northern Nassau
  Details for Northern Nassau Winter Weather Advisory
Southern Nassau
  Details for Southern Nassau Winter Weather Advisory
Northwest Suffolk
  Details for Northwest Suffolk Winter Weather Advisory  +1 additional alert
Southwest Suffolk
  Details for Southwest Suffolk Winter Weather Advisory  +1 additional alert
Northeast Suffolk
  Details for Northeast Suffolk Winter Weather Advisory  +1 additional alert
Southeast Suffolk
  Details for Southeast Suffolk Winter Weather Advisory  +1 additional alert


WXM80 ListenWXM80 Stop

You find our weather info also at:

UK Metoffice

WeatherCloud

Weather Underground

Northeastern Weather Network

AWEKAS

Citizen Weather Observer Program (CWOP)

HAMweather, WeatherForYou, PWS Weather


Weather Underground History page Text

Daily Summary for June 27, 2017 Units:  Metric    English   Both
« Previous Day
Next Day »
Daily Weekly Monthly Yearly Custom
  High: Low: Average:
Temperature: 26.4 °C 16.4 °C 20.4 °C
Dew Point: 20.4 °C 13.1 °C 16.2 °C
Humidity: 95 % 52 % 78 %
Wind Speed: 9 km/h 0 km/h 1.1 km/h
Wind Gust: 16.7 km/h - -
Wind:- - South
Pressure: 1015.8 hPa 1011.1 hPa -
Precipitation: 2.54 mm    
Historical Graphs
 
 
Tabular Data for June 27, 2017
Time Temperature Dew Point Pressure Wind Wind Speed Wind Gust Humidity Rainfall Rate (Hourly)
00:02 19.1 °C 16.3 °C 1013.8 hPa Calm   1.6 km/h 84 % 0 mm
00:07 19 °C 16.2 °C 1013.8 hPa Calm     84 % 0 mm
00:12 18.9 °C 16.2 °C 1013.8 hPa WSW 0.2 km/h 1.9 km/h 84 % 0 mm
00:17 18.8 °C 16.1 °C 1013.8 hPa Calm     84 % 0 mm
00:22 18.8 °C 16 °C 1013.8 hPa Calm   1.9 km/h 84 % 0 mm
00:27 18.7 °C 15.7 °C 1013.8 hPa Calm     83 % 0 mm
00:32 18.6 °C 15.7 °C 1013.8 hPa Calm   1.9 km/h 83 % 0 mm
00:37 18.5 °C 15.6 °C 1013.8 hPa SSE 0.2 km/h 3.7 km/h 83 % 0 mm
00:43 18.4 °C 15.5 °C 1013.8 hPa Calm     83 % 0 mm
00:48 18.4 °C 15.4 °C 1013.8 hPa Calm     83 % 0 mm
00:53 18.3 °C 15.2 °C 1013.8 hPa Calm     82 % 0 mm
00:58 18.3 °C 15.2 °C 1013.8 hPa Calm     82 % 0 mm
01:03 18.2 °C 15.1 °C 1013.8 hPa Calm     82 % 0 mm
01:08 18.2 °C 15.1 °C 1013.8 hPa Calm     82 % 0 mm
01:13 18.1 °C 14.9 °C 1013.4 hPa Calm   3.7 km/h 82 % 0 mm
01:18 18 °C 14.9 °C 1013.4 hPa SW 1.6 km/h 5.6 km/h 82 % 0 mm
01:23 17.9 °C 14.8 °C 1013.4 hPa Calm     82 % 0 mm
01:28 17.9 °C 14.8 °C 1013.8 hPa Calm     82 % 0 mm
01:33 17.8 °C 14.7 °C 1013.8 hPa SW 0.5 km/h 1.9 km/h 82 % 0 mm
01:38 17.8 °C 14.8 °C 1013.4 hPa Calm     83 % 0 mm
01:43 17.7 °C 14.7 °C 1013.4 hPa Calm     83 % 0 mm
01:48 17.7 °C 14.7 °C 1013.4 hPa Calm   1.9 km/h 83 % 0 mm
01:53 17.6 °C 14.6 °C 1013.4 hPa SW 0.6 km/h 1.9 km/h 83 % 0 mm
01:58 17.5 °C 14.6 °C 1013.4 hPa Calm   1.9 km/h 83 % 0 mm
02:03 17.4 °C 14.5 °C 1013.4 hPa Calm     83 % 0 mm
02:08 17.4 °C 14.4 °C 1013.4 hPa SW 1.3 km/h 3.7 km/h 83 % 0 mm
02:13 17.3 °C 14.6 °C 1013.4 hPa SW 0.3 km/h 1.9 km/h 84 % 0 mm
02:18 17.3 °C 14.6 °C 1013.4 hPa SW 0.5 km/h 3.7 km/h 84 % 0 mm
02:23 17.3 °C 14.6 °C 1013.4 hPa Calm   1.9 km/h 84 % 0 mm
02:28 17.3 °C 14.8 °C 1013.4 hPa SW 0.2 km/h 3.7 km/h 85 % 0 mm
02:33 17.3 °C 14.8 °C 1013.4 hPa Calm     85 % 0 mm
02:38 17.3 °C 14.8 °C 1013.4 hPa SW 0.2 km/h 1.9 km/h 85 % 0 mm
02:44 17.3 °C 14.6 °C 1013.4 hPa SW 1 km/h 3.7 km/h 84 % 0 mm
02:49 17.3 °C 14.4 °C 1014.1 hPa WNW 6 km/h 9.7 km/h 83 % 0 mm
02:54 17.3 °C 14.4 °C 1014.1 hPa WSW 6.6 km/h 11.1 km/h 83 % 0 mm
02:59 17.4 °C 14.5 °C 1014.1 hPa Calm   3.7 km/h 83 % 0 mm
03:04 17.5 °C 14.6 °C 1014.1 hPa West 0.6 km/h 3.7 km/h 83 % 0 mm
03:09 17.6 °C 14.9 °C 1014.1 hPa West 1 km/h 5.6 km/h 84 % 0 mm
03:14 17.7 °C 15.3 °C 1014.1 hPa Calm   1.6 km/h 86 % 0 mm
03:19 17.8 °C 15.4 °C 1014.1 hPa Calm     86 % 0 mm
03:24 17.9 °C 15.7 °C 1014.1 hPa Calm     87 % 0 mm
03:29 17.9 °C 15.7 °C 1014.1 hPa Calm     87 % 0 mm
03:34 17.9 °C 15.7 °C 1014.1 hPa WNW 0.2 km/h 3.7 km/h 87 % 0 mm
03:39 17.9 °C 15.9 °C 1014.1 hPa WNW 0.3 km/h 1.9 km/h 88 % 0 mm
03:40 17.9 °C 15.9 °C 1014.1 hPa Calm   1.9 km/h 88 % 0 mm
03:45 17.9 °C 15.9 °C 1014.1 hPa WNW 0.2 km/h 1.9 km/h 88 % 0 mm
03:50 17.9 °C 15.9 °C 1014.1 hPa WNW 0.5 km/h 3.7 km/h 88 % 0 mm
03:56 17.8 °C 15.8 °C 1014.1 hPa Calm   3.2 km/h 88 % 0 mm
04:01 17.7 °C 15.6 °C 1014.1 hPa WNW 2.1 km/h 5.6 km/h 87 % 0 mm
04:06 17.7 °C 15.5 °C 1014.1 hPa WNW 0.5 km/h 5.6 km/h 87 % 0 mm
04:11 17.6 °C 15.4 °C 1014.1 hPa Calm     87 % 0 mm
04:16 17.5 °C 15.1 °C 1014.1 hPa WNW 0.6 km/h 4.8 km/h 86 % 0 mm
04:21 17.4 °C 15 °C 1014.1 hPa WNW 2.1 km/h 3.7 km/h 86 % 0 mm
04:26 17.4 °C 14.8 °C 1013.8 hPa Calm     85 % 0 mm
04:31 17.3 °C 14.8 °C 1013.8 hPa NNW 1.8 km/h 5.6 km/h 85 % 0 mm
04:36 17.3 °C 14.7 °C 1013.8 hPa Calm   1.9 km/h 85 % 0 mm
04:41 17.3 °C 14.7 °C 1014.1 hPa NNW 0.6 km/h 3.2 km/h 85 % 0 mm
04:46 17.2 °C 14.7 °C 1013.8 hPa NNW 1 km/h 3.7 km/h 85 % 0 mm
04:51 17.2 °C 14.7 °C 1014.1 hPa NNW 0.3 km/h 1.9 km/h 85 % 0 mm
04:56 17.2 °C 14.7 °C 1013.8 hPa NNW 0.5 km/h 1.9 km/h 85 % 0 mm
05:01 17.2 °C 14.7 °C 1013.8 hPa NNW 0.5 km/h 3.7 km/h 85 % 0 mm
05:06 17.2 °C 14.7 °C 1014.1 hPa Calm   1.9 km/h 85 % 0 mm
05:11 17.2 °C 14.7 °C 1013.8 hPa Calm     85 % 0 mm
05:16 17.2 °C 14.7 °C 1014.1 hPa NNW 0.5 km/h 1.9 km/h 85 % 0 mm
05:21 17.2 °C 14.8 °C 1014.1 hPa NNW 1.3 km/h 1.9 km/h 86 % 0 mm
05:26 17.3 °C 14.9 °C 1014.1 hPa NNW 1.3 km/h 3.7 km/h 86 % 0 mm
05:31 17.3 °C 15.1 °C 1014.4 hPa NNW 0.3 km/h 1.9 km/h 87 % 0 mm
05:36 17.3 °C 15.3 °C 1014.8 hPa NNW 0.2 km/h 1.9 km/h 88 % 0 mm
05:41 17.4 °C 15.6 °C 1015.1 hPa NW 0.8 km/h 3.7 km/h 89 % 0 mm
05:46 17.4 °C 15.6 °C 1015.1 hPa North 0.8 km/h 1.9 km/h 89 % 0 mm
05:51 17.4 °C 15.6 °C 1015.1 hPa North 2.7 km/h 7.4 km/h 89 % 0 mm
05:56 17.4 °C 15.6 °C 1015.1 hPa North 2.3 km/h 5.6 km/h 89 % 0 mm
06:01 17.4 °C 15.4 °C 1015.5 hPa North 1.4 km/h 1.6 km/h 88 % 0 mm
06:07 17.4 °C 15.4 °C 1015.5 hPa WNW 6.4 km/h 6.4 km/h 88 % 0 mm
06:12 17.3 °C 15.3 °C 1015.5 hPa NNE 0.2 km/h 5.6 km/h 88 % 0 mm
06:17 17.3 °C 15.3 °C 1015.8 hPa NNE 2.6 km/h 9.3 km/h 88 % 0 mm
06:22 17.3 °C 15.4 °C 1015.5 hPa West 1.9 km/h 7.4 km/h 89 % 0 mm
06:27 17.2 °C 15.2 °C 1015.5 hPa ENE 1.1 km/h 3.7 km/h 88 % 0 mm
06:32 17.2 °C 15.2 °C 1015.5 hPa WNW 2.9 km/h 7.4 km/h 88 % 0 mm
06:37 17.1 °C 15.1 °C 1015.5 hPa WNW 0.3 km/h 1.9 km/h 88 % 0.25 mm
06:42 17.1 °C 15.1 °C 1015.5 hPa NW 0.3 km/h 3.2 km/h 88 % 0.25 mm
06:47 17 °C 15.2 °C 1015.5 hPa WNW 0.5 km/h 3.2 km/h 89 % 0.25 mm
06:52 16.9 °C 15.1 °C 1015.5 hPa Calm     89 % 0.25 mm
06:57 16.9 °C 15.1 °C 1015.5 hPa WNW 0.3 km/h 1.6 km/h 89 % 0.25 mm
07:02 16.9 °C 15.1 °C 1015.5 hPa Calm     89 % 0.51 mm
07:07 16.8 °C 15 °C 1015.8 hPa Calm     89 % 1.27 mm
07:12 16.8 °C 15.1 °C 1015.5 hPa Calm     90 % 1.78 mm
07:17 16.8 °C 15.3 °C 1015.1 hPa Calm     91 % 2.03 mm
07:22 16.7 °C 15.2 °C 1014.8 hPa Calm     91 % 2.29 mm
07:27 16.7 °C 15.4 °C 1014.4 hPa Calm   1.9 km/h 92 % 2.54 mm
07:32 16.6 °C 15.3 °C 1014.4 hPa NE 0.3 km/h 1.9 km/h 92 % 2.54 mm
07:37 16.5 °C 15.4 °C 1014.4 hPa NNE 0.2 km/h 1.9 km/h 93 % 2.29 mm
07:42 16.4 °C 15.3 °C 1014.4 hPa Calm     93 % 2.29 mm
07:47 16.4 °C 15.3 °C 1014.8 hPa Calm     93 % 2.29 mm
07:52 16.4 °C 15.3 °C 1014.8 hPa Calm     93 % 2.29 mm
07:57 16.4 °C 15.3 °C 1014.8 hPa Calm     93 % 2.29 mm
08:02 16.5 °C 15.6 °C 1014.8 hPa Calm   1.9 km/h 94 % 2.03 mm
08:07 16.6 °C 15.6 °C 1014.8 hPa Calm   1.9 km/h 94 % 1.27 mm
08:12 16.7 °C 15.7 °C 1014.8 hPa NE 1 km/h 1.9 km/h 94 % 0.76 mm
08:17 16.7 °C 15.9 °C 1014.8 hPa NW 1.1 km/h 1.9 km/h 95 % 0.51 mm
08:22 16.8 °C 16 °C 1014.8 hPa ENE 0.5 km/h 3.7 km/h 95 % 0.25 mm
08:27 16.9 °C 16.1 °C 1014.4 hPa ENE 0.3 km/h 1.9 km/h 95 % 0 mm
08:32 17 °C 16.2 °C 1014.4 hPa West 0.3 km/h 1.9 km/h 95 % 0 mm
08:37 17.1 °C 16.3 °C 1014.1 hPa NW 0.2 km/h 1.9 km/h 95 % 0 mm
08:42 17.2 °C 16.4 °C 1014.1 hPa SSE 0.3 km/h 1.9 km/h 95 % 0 mm
08:47 17.4 °C 16.6 °C 1014.1 hPa East 0.6 km/h 3.7 km/h 95 % 0 mm
08:52 17.5 °C 16.7 °C 1014.1 hPa ENE 1.4 km/h 3.7 km/h 95 % 0 mm
08:57 17.6 °C 16.8 °C 1014.1 hPa ENE 1 km/h 3.7 km/h 95 % 0 mm
09:02 17.7 °C 16.7 °C 1014.1 hPa ENE 0.5 km/h 3.7 km/h 94 % 0 mm
09:07 17.7 °C 16.7 °C 1014.1 hPa Calm   1.9 km/h 94 % 0 mm
09:13 17.8 °C 16.8 °C 1014.1 hPa SSW 1 km/h 5.6 km/h 94 % 0 mm
09:18 17.8 °C 16.7 °C 1014.1 hPa ENE 2.4 km/h 5.6 km/h 93 % 0 mm
09:21 17.8 °C 16.7 °C 1014.1 hPa Calm   1.9 km/h 93 % 0 mm
09:26 17.8 °C 16.5 °C 1014.1 hPa NE 1.1 km/h 3.2 km/h 92 % 0 mm
09:31 17.9 °C 16.6 °C 1014.1 hPa NE 3.5 km/h 5.6 km/h 92 % 0 mm
09:36 18 °C 16.7 °C 1014.4 hPa North 5 km/h 9.3 km/h 92 % 0 mm
09:41 18.2 °C 16.7 °C 1014.4 hPa East 3.7 km/h 9.3 km/h 91 % 0 mm
09:46 18.3 °C 16.8 °C 1014.4 hPa NNE 4.5 km/h 9.3 km/h 91 % 0 mm
09:51 18.5 °C 17 °C 1014.4 hPa NE 2.4 km/h 5.6 km/h 91 % 0 mm
09:56 18.8 °C 17.3 °C 1014.4 hPa NNE 2.1 km/h 8 km/h 91 % 0 mm
10:01 19.1 °C 17.2 °C 1014.8 hPa Calm   5.6 km/h 89 % 0 mm
10:06 19.2 °C 17.2 °C 1014.4 hPa NE 1.3 km/h 6.4 km/h 88 % 0 mm
10:11 19.4 °C 17.4 °C 1014.8 hPa NNE 2.3 km/h 5.6 km/h 88 % 0 mm
10:16 19.6 °C 17.2 °C 1014.4 hPa ENE 0.6 km/h 1.9 km/h 86 % 0 mm
10:21 19.7 °C 17.1 °C 1014.4 hPa SW 0.6 km/h 1.9 km/h 85 % 0 mm
10:26 19.6 °C 16.8 °C 1014.8 hPa North 1 km/h 4.8 km/h 84 % 0 mm
10:31 19.6 °C 16.8 °C 1014.8 hPa NE 0.2 km/h 1.9 km/h 84 % 0 mm
10:36 19.6 °C 16.8 °C 1014.8 hPa NNE 2.4 km/h 5.6 km/h 84 % 0 mm
10:37 19.6 °C 16.8 °C 1014.8 hPa NNE 2.6 km/h 5.6 km/h 84 % 0 mm
10:42 19.5 °C 16.7 °C 1014.4 hPa ENE 0.2 km/h 1.9 km/h 84 % 0 mm
10:47 19.5 °C 16.9 °C 1014.4 hPa Calm     85 % 0 mm
10:52 19.4 °C 16.6 °C 1014.8 hPa NE 0.3 km/h 1.9 km/h 84 % 0 mm
10:57 19.3 °C 16.7 °C 1014.4 hPa NE 1.3 km/h 3.7 km/h 85 % 0 mm
11:02 19.4 °C 17 °C 1014.8 hPa Calm     86 % 0 mm
11:07 19.4 °C 16.8 °C 1014.4 hPa NE 0.3 km/h 1.9 km/h 85 % 0 mm
11:12 19.4 °C 16.7 °C 1014.1 hPa NE 0.2 km/h 1.9 km/h 84 % 0 mm
11:17 19.5 °C 16.9 °C 1014.4 hPa ENE 0.2 km/h   85 % 0 mm
11:22 19.9 °C 17.8 °C 1014.4 hPa Calm     88 % 0 mm
11:27 20.3 °C 18.1 °C 1014.4 hPa NNE 3.2 km/h 5.6 km/h 87 % 0 mm
11:32 20.6 °C 17.6 °C 1014.4 hPa ENE 1.3 km/h 3.7 km/h 83 % 0 mm
11:37 20.8 °C 17.7 °C 1014.4 hPa NNE 1.6 km/h 3.7 km/h 82 % 0 mm
11:42 21.3 °C 18.7 °C 1014.4 hPa NE 1 km/h 5.6 km/h 85 % 0 mm
11:47 21.8 °C 17.8 °C 1014.4 hPa North 1.9 km/h 3.7 km/h 78 % 0 mm
11:52 22.2 °C 18.6 °C 1014.4 hPa ENE 2.3 km/h 5.6 km/h 80 % 0 mm
11:57 22.6 °C 18.4 °C 1014.4 hPa North 1.4 km/h 7.4 km/h 77 % 0 mm
12:02 23.1 °C 19 °C 1014.1 hPa North 1.8 km/h 3.7 km/h 78 % 0 mm
12:07 23.3 °C 18.7 °C 1014.1 hPa NNE 2.1 km/h 4.8 km/h 75 % 0 mm
12:12 23.7 °C 18.8 °C 1013.8 hPa NE 1.8 km/h 3.7 km/h 74 % 0 mm
12:18 23.9 °C 18.6 °C 1013.8 hPa East 3.1 km/h 5.6 km/h 72 % 0 mm
12:23 24.1 °C 18.7 °C 1013.8 hPa NE 1.6 km/h 5.6 km/h 72 % 0 mm
12:28 24.3 °C 18.2 °C 1013.4 hPa ENE 3.4 km/h 5.6 km/h 69 % 0 mm
12:33 24.2 °C 18.2 °C 1013.8 hPa NNE 3.7 km/h 7.4 km/h 69 % 0 mm
12:38 24.4 °C 18.3 °C 1013.8 hPa North 2.6 km/h 7.4 km/h 69 % 0 mm
12:43 24.6 °C 18.5 °C 1013.8 hPa NE 1.8 km/h 3.7 km/h 69 % 0 mm
12:48 24.7 °C 18.7 °C 1013.8 hPa NE 4.2 km/h 7.4 km/h 69 % 0 mm
12:53 24.6 °C 17.8 °C 1013.8 hPa NNE 0.5 km/h 5.6 km/h 66 % 0 mm
12:58 24.2 °C 17.2 °C 1013.8 hPa East 1.9 km/h 5.6 km/h 65 % 0 mm
13:03 23.5 °C 17.7 °C 1013.4 hPa ENE 0.5 km/h 1.9 km/h 70 % 0 mm
13:08 23.5 °C 18.8 °C 1013.4 hPa Calm   1.9 km/h 75 % 0 mm
13:13 23.9 °C 19.6 °C 1013.4 hPa East 0.2 km/h 1.6 km/h 77 % 0 mm
13:18 24.3 °C 18.9 °C 1013.4 hPa North 0.3 km/h 3.7 km/h 72 % 0 mm
13:23 24.7 °C 19.3 °C 1013.4 hPa NE 3.2 km/h 7.4 km/h 72 % 0 mm
13:28 24.8 °C 19 °C 1013.4 hPa NNE 1.6 km/h 5.6 km/h 70 % 0 mm
13:33 25.1 °C 19 °C 1013.1 hPa North 1.9 km/h 5.6 km/h 69 % 0 mm
13:34 25.2 °C 18.6 °C 1013.1 hPa North 3.4 km/h 5.6 km/h 67 % 0 mm
13:40 25.2 °C 18.6 °C 1013.1 hPa NNE 2.6 km/h 5.6 km/h 67 % 0 mm
13:45 25.4 °C 19.6 °C 1013.1 hPa NE 1.3 km/h 5.6 km/h 70 % 0 mm
13:50 25.7 °C 19.3 °C 1012.8 hPa SSW 1.3 km/h 3.7 km/h 68 % 0 mm
13:55 25.7 °C 18.9 °C 1012.8 hPa ENE 1.6 km/h 3.7 km/h 66 % 0 mm
14:00 25.5 °C 18.4 °C 1012.8 hPa NE 1.9 km/h 5.6 km/h 65 % 0 mm
14:05 25.2 °C 18.1 °C 1012.8 hPa NE 1.6 km/h 3.7 km/h 65 % 0 mm
14:10 24.8 °C 17.8 °C 1012.8 hPa East 2.1 km/h 3.7 km/h 65 % 0 mm
14:15 24.7 °C 18.4 °C 1012.8 hPa NE 1.6 km/h 5.6 km/h 68 % 0 mm
14:20 24.9 °C 18.8 °C 1012.8 hPa NE 0.8 km/h 5.6 km/h 69 % 0 mm
14:25 25.1 °C 18.7 °C 1012.4 hPa NE 1.3 km/h 3.7 km/h 68 % 0 mm
14:30 25.2 °C 18.7 °C 1012.4 hPa NE 2.4 km/h 3.7 km/h 67 % 0 mm
14:35 25.3 °C 18.4 °C 1012.1 hPa ENE 1.3 km/h 3.2 km/h 66 % 0 mm
14:40 25.4 °C 18.8 °C 1012.1 hPa NE 2.1 km/h 5.6 km/h 67 % 0 mm
14:45 25.4 °C 18.6 °C 1012.1 hPa ENE 2.6 km/h 5.6 km/h 66 % 0 mm
14:50 25.5 °C 19.6 °C 1012.1 hPa ENE 0.8 km/h 3.7 km/h 70 % 0 mm
14:55 25.4 °C 18.9 °C 1012.1 hPa ENE 1.6 km/h 3.7 km/h 67 % 0 mm
15:00 25.4 °C 18.6 °C 1012.1 hPa ESE 1.9 km/h 5.6 km/h 66 % 0 mm
15:05 25.4 °C 19.3 °C 1012.1 hPa NE 0.3 km/h 1.9 km/h 69 % 0 mm
15:10 25.6 °C 19.2 °C 1011.7 hPa NE 2.7 km/h 3.7 km/h 68 % 0 mm
15:15 25.4 °C 18.9 °C 1011.7 hPa NE 0.3 km/h 1.9 km/h 67 % 0 mm
15:20 25.4 °C 19.3 °C 1011.7 hPa Calm   1.9 km/h 69 % 0 mm
15:25 25.7 °C 19.6 °C 1011.7 hPa Calm   1.9 km/h 69 % 0 mm
15:30 25.8 °C 19.4 °C 1011.7 hPa NE 3.1 km/h 3.7 km/h 68 % 0 mm
15:35 25.7 °C 19.4 °C 1011.7 hPa NE 0.3 km/h 5.6 km/h 68 % 0 mm
15:41 25.8 °C 19.7 °C 1011.7 hPa Calm   1.6 km/h 69 % 0 mm
15:46 26 °C 19.6 °C 1011.7 hPa Calm   1.6 km/h 68 % 0 mm
15:51 26.2 °C 19.3 °C 1011.7 hPa Calm   1.6 km/h 66 % 0 mm
15:56 26.4 °C 19.5 °C 1011.7 hPa Calm   1.6 km/h 66 % 0 mm
16:01 26.3 °C 19 °C 1011.7 hPa Calm     64 % 0 mm
16:06 26.3 °C 18.9 °C 1011.7 hPa WNW 0.2 km/h 3.7 km/h 64 % 0 mm
16:11 26.1 °C 19.2 °C 1011.7 hPa WNW 0.6 km/h 3.7 km/h 66 % 0 mm
16:16 25.8 °C 20.4 °C 1011.7 hPa Calm     72 % 0 mm
16:21 25.7 °C 19.8 °C 1011.4 hPa Calm   1.6 km/h 70 % 0 mm
16:26 25.7 °C 20.1 °C 1011.4 hPa West 2.4 km/h 6.4 km/h 71 % 0 mm
16:31 25.7 °C 18.7 °C 1011.4 hPa SE 2.9 km/h 5.6 km/h 65 % 0 mm
16:36 25.7 °C 17.8 °C 1011.4 hPa SE 4.3 km/h 9.3 km/h 62 % 0 mm
16:41 25.6 °C 18.7 °C 1011.1 hPa SE 1.1 km/h 7.4 km/h 66 % 0 mm
16:46 25.6 °C 18 °C 1011.1 hPa SSW 2.1 km/h 5.6 km/h 63 % 0 mm
16:51 25.7 °C 17.8 °C 1011.4 hPa South 4.3 km/h 8 km/h 62 % 0 mm
16:56 25.8 °C 17.2 °C 1011.1 hPa SSW 2.9 km/h 7.4 km/h 59 % 0 mm
17:01 25.9 °C 17.6 °C 1011.4 hPa WSW 2.9 km/h 5.6 km/h 60 % 0 mm
17:06 26 °C 16.8 °C 1011.4 hPa WSW 2.1 km/h 5.6 km/h 57 % 0 mm
17:11 26 °C 15.7 °C 1011.4 hPa SW 9 km/h 13 km/h 53 % 0 mm
17:16 25.9 °C 15.6 °C 1011.4 hPa SW 7.2 km/h 9.3 km/h 53 % 0 mm
17:21 25.9 °C 15.6 °C 1011.4 hPa SW 5.1 km/h 6.4 km/h 53 % 0 mm
17:26 25.8 °C 15.2 °C 1011.4 hPa SW 3.1 km/h 7.4 km/h 52 % 0 mm
17:31 25.8 °C 16.3 °C 1011.4 hPa SSW 2.9 km/h 5.6 km/h 56 % 0 mm
17:37 25.7 °C 17.1 °C 1011.4 hPa SE 1.8 km/h 7.4 km/h 59 % 0 mm
17:42 25.6 °C 17.3 °C 1011.4 hPa SE 2.6 km/h 11.1 km/h 60 % 0 mm
17:47 25.4 °C 17.1 °C 1011.4 hPa SW 3.7 km/h 11.1 km/h 60 % 0 mm
17:52 25.3 °C 16.5 °C 1011.4 hPa SW 1.6 km/h 5.6 km/h 58 % 0 mm
17:57 25.3 °C 16.9 °C 1011.1 hPa East 1 km/h 11.1 km/h 60 % 0 mm
18:02 25.1 °C 16.6 °C 1011.1 hPa SW 2.1 km/h 6.4 km/h 59 % 0 mm
18:07 25 °C 16.2 °C 1011.1 hPa SE 1.6 km/h 5.6 km/h 58 % 0 mm
18:12 24.9 °C 16.6 °C 1011.1 hPa SSW 3.7 km/h 6.4 km/h 60 % 0 mm
18:17 24.7 °C 16.2 °C 1011.1 hPa SE 3.5 km/h 11.1 km/h 59 % 0 mm
18:22 24.6 °C 16.3 °C 1011.4 hPa SW 5 km/h 9.3 km/h 60 % 0 mm
18:27 24.4 °C 16.4 °C 1011.4 hPa SW 1.1 km/h 3.7 km/h 61 % 0 mm
18:32 24.2 °C 16.2 °C 1011.4 hPa SW 0.2 km/h 1.9 km/h 61 % 0 mm
18:37 24 °C 16 °C 1011.4 hPa SW 1.1 km/h 1.9 km/h 61 % 0 mm
18:42 23.8 °C 15.8 °C 1011.4 hPa Calm   1.9 km/h 61 % 0 mm
18:47 23.7 °C 15.7 °C 1011.7 hPa West 1.9 km/h 5.6 km/h 61 % 0 mm
18:52 23.4 °C 15.5 °C 1012.1 hPa NNE 6.6 km/h 16.7 km/h 61 % 0 mm
18:57 23.1 °C 15.4 °C 1012.1 hPa North 4.8 km/h 9.3 km/h 62 % 0 mm
19:02 22.8 °C 15.7 °C 1012.4 hPa NW 2.9 km/h 3.7 km/h 64 % 0 mm
19:07 22.7 °C 16.7 °C 1012.4 hPa WSW 4.3 km/h 9.7 km/h 69 % 0 mm
19:12 22.5 °C 16.5 °C 1012.1 hPa SSW 3.1 km/h 11.1 km/h 69 % 0 mm
19:17 22.3 °C 16.6 °C 1012.1 hPa West 0.3 km/h 1.9 km/h 70 % 0 mm
19:18 22.3 °C 16.6 °C 1012.1 hPa SSW 0.5 km/h 3.2 km/h 70 % 0 mm
19:23 22.1 °C 16.3 °C 1012.1 hPa SE 0.5 km/h 3.7 km/h 70 % 0 mm
19:28 21.9 °C 16.2 °C 1012.1 hPa SSW 0.6 km/h 5.6 km/h 70 % 0 mm
19:33 21.7 °C 15.9 °C 1012.4 hPa Calm     70 % 0 mm
19:38 21.5 °C 16 °C 1012.4 hPa SSW 2.1 km/h 5.6 km/h 71 % 0 mm
19:43 21.4 °C 15.7 °C 1012.4 hPa WNW 1 km/h 3.7 km/h 70 % 0 mm
19:48 21.2 °C 15.3 °C 1012.4 hPa Calm   1.9 km/h 69 % 0 mm
19:53 21.1 °C 15 °C 1012.4 hPa SSW 3.5 km/h 7.4 km/h 68 % 0 mm
19:58 20.9 °C 14.8 °C 1012.8 hPa West 1.3 km/h 5.6 km/h 68 % 0 mm
20:03 20.8 °C 14.5 °C 1012.8 hPa WNW 1.1 km/h 5.6 km/h 67 % 0 mm
20:08 20.7 °C 13.8 °C 1012.8 hPa West 4.2 km/h 5.6 km/h 65 % 0 mm
20:13 20.6 °C 13.7 °C 1012.8 hPa WSW 2.3 km/h 5.6 km/h 65 % 0 mm
20:18 20.4 °C 13.2 °C 1012.8 hPa SW 1.1 km/h 5.6 km/h 63 % 0 mm
20:23 20.4 °C 13.1 °C 1012.8 hPa West 0.3 km/h 7.4 km/h 63 % 0 mm
20:28 20.3 °C 13.3 °C 1012.8 hPa West 0.2 km/h   64 % 0 mm
20:33 20.3 °C 13.5 °C 1012.8 hPa Calm     65 % 0 mm
20:35 20.3 °C 13.5 °C 1012.8 hPa SSE 1 km/h   65 % 0 mm
20:40 20.2 °C 13.9 °C 1012.8 hPa Calm   1.9 km/h 67 % 0 mm
20:45 20.2 °C 14.3 °C 1012.8 hPa West 2.1 km/h 3.7 km/h 69 % 0 mm
20:50 20.1 °C 14.4 °C 1012.8 hPa Calm     70 % 0 mm
20:55 20.1 °C 14.4 °C 1012.8 hPa Calm     70 % 0 mm
21:00 19.9 °C 14.3 °C 1013.1 hPa Calm     70 % 0 mm
21:05 19.9 °C 14.7 °C 1013.1 hPa Calm     72 % 0 mm
21:10 19.8 °C 14.8 °C 1013.1 hPa Calm     73 % 0 mm
21:15 19.7 °C 14.7 °C 1013.1 hPa Calm     73 % 0 mm
21:20 19.6 °C 14.6 °C 1013.1 hPa Calm     73 % 0 mm
21:25 19.4 °C 14.5 °C 1013.1 hPa Calm     73 % 0 mm
21:30 19.3 °C 14.4 °C 1013.1 hPa Calm     73 % 0 mm
21:35 19.3 °C 14.3 °C 1013.1 hPa Calm     73 % 0 mm
21:40 19.2 °C 14.3 °C 1013.1 hPa Calm     73 % 0 mm
21:45 19.1 °C 14.2 °C 1013.1 hPa Calm     73 % 0 mm
21:50 19.1 °C 14.1 °C 1013.1 hPa Calm     73 % 0 mm
21:55 19 °C 14.3 °C 1013.1 hPa Calm     74 % 0 mm
22:00 18.9 °C 14.2 °C 1013.4 hPa Calm     74 % 0 mm
22:05 18.9 °C 13.9 °C 1013.4 hPa Calm     73 % 0 mm
22:10 18.8 °C 13.9 °C 1013.4 hPa Calm     73 % 0 mm
22:15 18.8 °C 13.8 °C 1013.4 hPa Calm     73 % 0 mm
22:20 18.7 °C 14 °C 1013.8 hPa Calm     74 % 0 mm
22:25 18.7 °C 13.9 °C 1013.8 hPa Calm     74 % 0 mm
22:30 18.6 °C 13.9 °C 1013.8 hPa Calm     74 % 0 mm
22:35 18.6 °C 14.1 °C 1013.8 hPa Calm     75 % 0 mm
22:40 18.4 °C 13.9 °C 1013.8 hPa Calm     75 % 0 mm
22:45 18.4 °C 14.1 °C 1014.1 hPa Calm     76 % 0 mm
22:50 18.3 °C 14.2 °C 1014.1 hPa Calm     77 % 0 mm
22:55 18.2 °C 14.1 °C 1014.1 hPa Calm     77 % 0 mm
23:01 18.1 °C 14.4 °C 1014.4 hPa Calm     79 % 0 mm
23:06 18 °C 14.5 °C 1014.1 hPa Calm     80 % 0 mm
23:11 17.9 °C 14.4 °C 1014.4 hPa Calm     80 % 0 mm
23:16 17.8 °C 14.3 °C 1014.4 hPa Calm     80 % 0 mm
23:21 17.7 °C 14.4 °C 1014.4 hPa Calm     81 % 0 mm
23:26 17.6 °C 14.3 °C 1014.4 hPa Calm     81 % 0 mm
23:31 17.5 °C 14.4 °C 1014.4 hPa Calm     82 % 0 mm
23:36 17.4 °C 14.5 °C 1014.4 hPa Calm     83 % 0 mm
23:41 17.3 °C 14.4 °C 1014.8 hPa Calm     83 % 0 mm
23:45 17.2 °C 14.3 °C 1014.8 hPa Calm     83 % 0 mm
23:51 17.1 °C 14.4 °C 1014.8 hPa Calm     84 % 0 mm
23:56 16.9 °C 14.2 °C 1014.8 hPa Calm     84 % 0 mm
Crab Meadow Weather
Compliments of Weather Underground - 3 mb

Script developed by  Jim McMurry - jmcmurry@mwt.net Adapted for the template by  Wim van der Kuil - Leuven-Template.eu

Weather Terms: Sleet - Sleet or ice pellets are solid grains of ice formed from the freezing of rain or the refreezing of melted snow, which bounce off the ground and other objects.